createdAt,value
2023-05-10T00:03:24.886Z,19.26
2023-05-10T00:05:52.551Z,19.27
2023-05-10T00:08:20.200Z,19.27
2023-05-10T00:10:47.820Z,19.27
2023-05-10T00:13:15.503Z,19.26
2023-05-10T01:02:25.653Z,19.27
2023-05-10T01:04:53.445Z,19.28
2023-05-10T01:07:21.042Z,19.27
2023-05-10T01:09:48.710Z,19.27
2023-05-10T01:12:17.017Z,19.28
2023-05-10T01:14:44.657Z,19.27
2023-05-10T01:46:35.677Z,19.26
2023-05-10T01:49:03.380Z,19.25
2023-05-10T01:51:33.614Z,19.25
2023-05-10T01:54:02.301Z,19.26
2023-05-10T01:56:30.203Z,19.25
2023-05-10T01:58:57.766Z,19.25
2023-05-10T02:48:08.347Z,19.25
2023-05-10T02:50:36.334Z,19.23
2023-05-10T02:53:06.654Z,19.23
2023-05-10T02:55:35.050Z,19.22
2023-05-10T02:58:02.890Z,19.19
2023-05-10T03:47:27.621Z,19.27
2023-05-10T03:49:55.451Z,19.28
2023-05-10T03:52:23.899Z,19.23
2023-05-10T03:54:51.579Z,19.30
2023-05-10T03:57:19.735Z,19.29
2023-05-10T03:59:47.432Z,18.72
2023-05-10T04:38:30.492Z,18.49
2023-05-10T04:41:05.462Z,18.56
2023-05-10T04:43:32.999Z,18.67
2023-05-10T04:46:00.632Z,18.68
2023-05-10T04:48:28.202Z,18.70
2023-05-10T04:50:55.815Z,18.72
2023-05-10T04:53:23.399Z,18.75
2023-05-10T04:55:52.425Z,18.77
2023-05-10T04:58:20.041Z,18.80
2023-05-10T05:00:47.618Z,18.82
2023-05-10T05:03:15.313Z,18.84
2023-05-10T05:05:42.997Z,18.87
2023-05-10T05:08:10.537Z,18.88
2023-05-10T05:10:38.109Z,18.90
2023-05-10T05:13:07.137Z,18.91
2023-05-10T05:15:34.963Z,18.91
2023-05-10T05:18:02.611Z,18.93
2023-05-10T05:20:30.264Z,19.00
2023-05-10T05:22:57.854Z,19.00
2023-05-10T05:25:25.480Z,19.00
2023-05-10T05:27:53.023Z,19.01
2023-05-10T05:30:22.018Z,19.01
2023-05-10T05:32:49.635Z,19.03
2023-05-10T05:35:17.325Z,19.04
2023-05-10T05:37:46.118Z,19.05
2023-05-10T05:40:14.493Z,19.07
2023-05-10T05:42:42.228Z,19.07
2023-05-10T05:45:13.949Z,19.07
2023-05-10T05:47:43.275Z,19.08
2023-05-10T05:50:11.568Z,19.09
2023-05-10T05:52:39.163Z,19.09
2023-05-10T05:55:06.877Z,19.10
2023-05-10T05:57:34.604Z,19.10
2023-05-10T06:00:02.348Z,19.11
2023-05-10T06:02:40.312Z,19.12
2023-05-10T06:05:10.124Z,19.13
2023-05-10T06:07:37.721Z,19.13
2023-05-10T06:10:05.648Z,19.14
2023-05-10T06:12:33.212Z,19.13
2023-05-10T06:15:00.735Z,19.17
2023-05-10T06:17:28.512Z,19.16
2023-05-10T06:19:56.097Z,19.14
2023-05-10T06:22:25.102Z,19.15
2023-05-10T06:24:52.648Z,19.17
2023-05-10T06:27:20.256Z,19.19
2023-05-10T06:29:49.194Z,19.20
2023-05-10T06:32:18.104Z,19.21
2023-05-10T06:34:45.629Z,19.21
2023-05-10T06:37:13.190Z,19.21
2023-05-10T06:39:42.079Z,19.22
2023-05-10T06:42:09.621Z,19.22
2023-05-10T06:44:37.174Z,19.23
2023-05-10T06:47:04.766Z,19.23
2023-05-10T06:49:32.368Z,19.25
2023-05-10T06:51:59.944Z,19.22
2023-05-10T06:54:27.435Z,19.23
2023-05-10T06:56:56.424Z,19.23
2023-05-10T06:59:24.005Z,19.26
2023-05-10T07:01:51.589Z,19.24
2023-05-10T07:04:19.657Z,19.25
2023-05-10T07:06:47.608Z,19.26
2023-05-10T07:09:15.469Z,19.27
2023-05-10T07:11:43.006Z,19.27
2023-05-10T07:14:11.924Z,19.28
2023-05-10T07:16:39.609Z,19.28
2023-05-10T07:19:07.443Z,19.27
2023-05-10T07:21:36.175Z,19.27
2023-05-10T07:24:03.897Z,19.28
2023-05-10T07:26:31.446Z,19.28
2023-05-10T07:28:58.988Z,19.28
2023-05-10T07:31:28.006Z,19.29
2023-05-10T07:33:55.785Z,19.29
2023-05-10T07:36:23.359Z,19.28
2023-05-10T07:38:51.517Z,19.30
2023-05-10T07:41:19.128Z,19.30
2023-05-10T07:43:46.987Z,19.31
2023-05-10T07:46:14.641Z,19.30
2023-05-10T07:48:43.670Z,19.31
2023-05-10T07:51:11.662Z,19.32
2023-05-10T07:53:39.250Z,19.31
2023-05-10T07:56:21.901Z,19.32
2023-05-10T07:58:49.502Z,19.32
2023-05-10T08:01:17.077Z,19.33
2023-05-10T08:03:46.167Z,19.33
2023-05-10T08:06:13.846Z,19.32
2023-05-10T08:08:42.117Z,19.33
2023-05-10T08:11:09.712Z,19.34
2023-05-10T08:13:37.283Z,19.34
2023-05-10T08:16:05.000Z,19.34
2023-05-10T08:18:32.573Z,19.34
2023-05-10T08:21:01.585Z,19.34
2023-05-10T08:23:29.116Z,19.35
2023-05-10T08:25:56.651Z,19.36
2023-05-10T08:28:24.180Z,19.35
2023-05-10T08:30:51.799Z,19.36
2023-05-10T08:33:19.558Z,19.36
2023-05-10T08:35:47.126Z,19.37
2023-05-10T08:38:16.030Z,19.37
2023-05-10T08:40:43.808Z,19.38
2023-05-10T08:43:11.586Z,19.39
2023-05-10T08:45:39.588Z,19.39
2023-05-10T08:48:07.446Z,19.39
2023-05-10T08:50:36.026Z,19.39
2023-05-10T08:53:03.789Z,19.40
2023-05-10T08:55:33.778Z,19.40
2023-05-10T08:58:01.493Z,19.40
2023-05-10T09:00:29.089Z,19.40
2023-05-10T09:02:56.680Z,19.41
2023-05-10T09:05:24.251Z,19.40
2023-05-10T09:07:51.814Z,19.42
2023-05-10T09:10:19.376Z,19.42
2023-05-10T09:12:48.370Z,19.42
2023-05-10T09:15:17.059Z,19.42
2023-05-10T09:17:44.825Z,19.42
2023-05-10T09:20:12.462Z,19.44
2023-05-10T09:22:40.019Z,19.44
2023-05-10T09:25:08.392Z,19.43
2023-05-10T09:27:35.932Z,19.45
2023-05-10T09:30:05.123Z,19.45
2023-05-10T09:32:38.092Z,19.45
2023-05-10T09:35:09.339Z,19.45
2023-05-10T09:37:36.885Z,19.45
2023-05-10T09:40:06.551Z,19.45
2023-05-10T09:42:34.326Z,19.47
2023-05-10T09:45:02.581Z,19.46
2023-05-10T09:47:31.580Z,19.46
2023-05-10T09:50:03.977Z,19.47
2023-05-10T09:52:31.696Z,19.47
2023-05-10T09:54:59.316Z,19.50
2023-05-10T09:57:27.334Z,19.48
2023-05-10T09:59:56.447Z,19.48
2023-05-10T10:02:24.099Z,19.50
2023-05-10T10:04:53.548Z,19.49
2023-05-10T10:07:24.168Z,19.51
2023-05-10T10:09:51.733Z,19.50
2023-05-10T10:12:20.331Z,19.51
2023-05-10T10:14:48.308Z,19.53
2023-05-10T10:17:15.892Z,19.54
2023-05-10T10:19:43.457Z,19.53
2023-05-10T10:22:13.450Z,19.55
2023-05-10T10:24:41.826Z,19.55
2023-05-10T10:27:11.339Z,19.55
2023-05-10T10:29:39.165Z,19.56
2023-05-10T10:32:08.990Z,19.55
2023-05-10T10:34:36.595Z,19.57
2023-05-10T10:37:05.988Z,19.57
2023-05-10T10:39:37.596Z,19.58
2023-05-10T10:42:05.940Z,19.58
2023-05-10T10:44:37.690Z,19.58
2023-05-10T10:47:12.191Z,19.59
2023-05-10T10:49:40.096Z,19.58
2023-05-10T10:52:29.436Z,19.59
2023-05-10T10:55:02.174Z,19.59
2023-05-10T10:57:31.088Z,19.61
2023-05-10T11:00:19.669Z,19.61
2023-05-10T11:02:49.648Z,19.61
2023-05-10T11:05:27.173Z,19.61
2023-05-10T11:07:55.361Z,19.61
2023-05-10T11:10:24.356Z,19.62
2023-05-10T11:12:56.549Z,19.63
2023-05-10T11:15:30.478Z,19.62
2023-05-10T11:17:58.092Z,19.63
2023-05-10T11:20:29.868Z,19.64
2023-05-10T11:22:57.507Z,19.65
2023-05-10T11:25:29.937Z,19.64
2023-05-10T11:27:57.736Z,19.66
2023-05-10T11:30:25.362Z,19.66
2023-05-10T11:32:53.040Z,19.66
2023-05-10T11:35:20.633Z,19.67
2023-05-10T11:37:49.925Z,19.67
2023-05-10T11:40:18.036Z,19.68
2023-05-10T11:42:47.079Z,19.69
2023-05-10T11:45:14.638Z,19.69
2023-05-10T11:47:44.237Z,19.69
2023-05-10T11:50:12.498Z,19.69
2023-05-10T11:52:40.052Z,19.69
2023-05-10T11:55:07.943Z,19.70
2023-05-10T11:57:35.559Z,19.70
2023-05-10T12:00:04.772Z,19.70
2023-05-10T12:02:35.404Z,19.70
2023-05-10T12:05:03.233Z,19.71
2023-05-10T12:07:30.959Z,19.72
2023-05-10T12:10:05.138Z,19.72
2023-05-10T12:12:37.548Z,19.73
2023-05-10T12:15:07.321Z,19.73
2023-05-10T12:17:35.049Z,19.73
2023-05-10T12:20:15.029Z,19.74
2023-05-10T12:22:42.780Z,19.75
2023-05-10T12:25:10.856Z,19.74
2023-05-10T12:27:38.524Z,19.74
2023-05-10T12:30:08.435Z,19.75
2023-05-10T12:32:39.622Z,19.76
2023-05-10T12:35:07.551Z,19.76
2023-05-10T12:37:36.902Z,19.78
2023-05-10T12:40:06.008Z,19.78
2023-05-10T12:42:33.589Z,19.78
2023-05-10T12:45:01.143Z,19.77
2023-05-10T12:47:30.121Z,19.79
2023-05-10T12:49:57.692Z,19.79
2023-05-10T12:52:25.276Z,19.80
2023-05-10T12:54:52.844Z,19.80
2023-05-10T12:57:20.376Z,19.81
2023-05-10T12:59:47.948Z,19.82
2023-05-10T13:02:15.955Z,19.82
2023-05-10T13:04:44.932Z,19.83
2023-05-10T13:07:12.680Z,19.83
2023-05-10T13:09:40.246Z,19.83
2023-05-10T13:12:10.013Z,19.83
2023-05-10T13:14:37.910Z,19.83
2023-05-10T13:17:05.599Z,19.84
2023-05-10T13:19:33.226Z,19.85
2023-05-10T13:22:02.276Z,19.85
2023-05-10T13:24:30.104Z,19.85
2023-05-10T13:26:57.674Z,19.87
2023-05-10T13:29:26.309Z,19.87
2023-05-10T13:31:54.726Z,19.86
2023-05-10T13:34:22.551Z,19.89
2023-05-10T13:36:50.581Z,19.88
2023-05-10T13:39:22.259Z,19.88
2023-05-10T13:41:49.916Z,19.88
2023-05-10T13:44:17.669Z,19.89
2023-05-10T13:46:45.450Z,19.89
2023-05-10T13:49:13.089Z,19.88
2023-05-10T13:51:40.733Z,19.88
2023-05-10T13:54:08.265Z,19.88
2023-05-10T13:56:37.278Z,19.89
2023-05-10T13:59:04.983Z,19.88
2023-05-10T14:01:32.915Z,19.89
2023-05-10T14:04:00.595Z,19.88
2023-05-10T14:06:28.603Z,19.88
2023-05-10T14:08:56.208Z,19.89
2023-05-10T14:11:24.827Z,19.89
2023-05-10T14:13:53.872Z,19.90
2023-05-10T14:16:21.629Z,19.90
2023-05-10T14:18:49.284Z,19.91
2023-05-10T14:21:17.361Z,19.91
2023-05-10T14:23:45.124Z,19.91
2023-05-10T14:26:13.032Z,19.91
2023-05-10T14:28:40.737Z,19.92
2023-05-10T14:31:09.758Z,19.93
2023-05-10T14:33:37.354Z,19.93
2023-05-10T14:36:05.276Z,19.93
2023-05-10T14:38:32.833Z,19.93
2023-05-10T14:41:00.400Z,19.93
2023-05-10T14:43:28.512Z,19.93
2023-05-10T14:45:56.073Z,19.94
2023-05-10T14:48:25.052Z,19.94
2023-05-10T14:50:53.517Z,19.94
2023-05-10T14:53:21.069Z,19.94
2023-05-10T14:55:48.659Z,19.95
2023-05-10T14:58:16.254Z,19.95
2023-05-10T15:00:44.397Z,19.95
2023-05-10T15:03:12.391Z,19.96
2023-05-10T15:05:42.173Z,19.95
2023-05-10T15:08:10.278Z,19.96
2023-05-10T15:10:38.032Z,19.97
2023-05-10T15:13:05.581Z,19.97
2023-05-10T15:15:33.232Z,19.97
2023-05-10T15:18:01.154Z,19.98
2023-05-10T15:20:28.927Z,19.97
2023-05-10T15:22:57.941Z,19.98
2023-05-10T15:25:25.947Z,19.97
2023-05-10T15:27:53.568Z,19.98
2023-05-10T15:30:21.202Z,19.98
2023-05-10T15:32:48.801Z,19.98
2023-05-10T15:35:16.528Z,19.97
2023-05-10T15:37:44.209Z,19.98
2023-05-10T15:40:13.638Z,19.99
2023-05-10T15:42:41.286Z,19.98
2023-05-10T15:45:09.384Z,19.99
2023-05-10T15:47:37.142Z,19.98
2023-05-10T15:50:04.844Z,19.98
2023-05-10T15:52:32.428Z,19.99
2023-05-10T15:54:59.992Z,19.99
2023-05-10T15:57:28.943Z,19.98
2023-05-10T15:59:56.574Z,20.00
2023-05-10T16:02:24.245Z,20.01
2023-05-10T16:04:51.921Z,20.00
2023-05-10T16:07:19.454Z,20.01
2023-05-10T16:09:47.059Z,20.00
2023-05-10T16:12:14.612Z,20.00
2023-05-10T16:14:43.493Z,19.99
2023-05-10T16:17:11.640Z,20.00
2023-05-10T16:19:39.286Z,20.02
2023-05-10T16:22:06.930Z,20.02
2023-05-10T16:24:34.472Z,19.98
2023-05-10T16:27:03.135Z,20.02
2023-05-10T16:29:31.922Z,20.01
2023-05-10T16:32:01.629Z,20.04
2023-05-10T16:34:29.261Z,20.06
2023-05-10T16:36:57.202Z,20.04
2023-05-10T16:39:24.763Z,20.05
2023-05-10T16:41:52.316Z,20.02
2023-05-10T16:44:20.812Z,20.04
2023-05-10T16:46:49.257Z,20.05
2023-05-10T16:49:18.230Z,20.04
2023-05-10T16:51:45.864Z,20.04
2023-05-10T16:54:13.520Z,20.04
2023-05-10T16:56:41.079Z,20.05
2023-05-10T16:59:08.641Z,20.04
2023-05-10T17:01:36.419Z,20.05
2023-05-10T17:04:04.357Z,20.05
2023-05-10T17:06:33.657Z,20.05
2023-05-10T17:09:01.265Z,20.05
2023-05-10T17:11:30.000Z,20.06
2023-05-10T17:13:57.638Z,20.06
2023-05-10T17:16:25.517Z,20.06
2023-05-10T17:18:53.223Z,20.06
2023-05-10T17:21:21.142Z,20.06
2023-05-10T17:23:50.182Z,20.08
2023-05-10T17:26:17.736Z,20.07
2023-05-10T17:28:45.397Z,20.07
2023-05-10T17:31:13.152Z,20.07
2023-05-10T17:33:40.831Z,20.08
2023-05-10T17:36:08.768Z,20.07
2023-05-10T17:38:36.867Z,20.07
2023-05-10T17:41:05.956Z,20.07
2023-05-10T17:43:33.525Z,20.07
2023-05-10T17:46:01.157Z,20.06
2023-05-10T17:48:28.793Z,20.06
2023-05-10T17:50:56.375Z,20.06
2023-05-10T17:53:23.979Z,20.06
2023-05-10T17:55:52.198Z,20.07
2023-05-10T17:58:21.253Z,20.06
2023-05-10T18:00:49.281Z,20.07
2023-05-10T18:03:16.920Z,20.06
2023-05-10T18:05:44.966Z,20.07
2023-05-10T18:08:12.538Z,20.06
2023-05-10T18:10:41.840Z,20.07
2023-05-10T18:13:10.736Z,20.05
2023-05-10T18:15:42.610Z,20.05
2023-05-10T18:18:11.115Z,20.06
2023-05-10T18:20:39.084Z,20.06
2023-05-10T18:23:08.089Z,20.06
2023-05-10T18:25:36.174Z,20.05
2023-05-10T18:28:03.788Z,20.05
2023-05-10T18:30:31.558Z,20.05
2023-05-10T18:33:00.550Z,20.05
2023-05-10T18:35:28.297Z,20.04
2023-05-10T18:37:56.083Z,20.04
2023-05-10T18:40:23.767Z,20.04
2023-05-10T18:42:51.452Z,20.04
2023-05-10T18:45:19.304Z,20.03
2023-05-10T18:47:47.256Z,20.04
2023-05-10T18:50:17.015Z,20.04
2023-05-10T18:52:44.834Z,20.04
2023-05-10T18:55:13.246Z,20.03
2023-05-10T18:57:43.536Z,20.03
2023-05-10T19:00:12.240Z,20.03
2023-05-10T19:02:40.127Z,20.02
2023-05-10T19:05:08.675Z,20.02
2023-05-10T19:07:37.617Z,20.02
2023-05-10T19:10:05.454Z,20.03
2023-05-10T19:12:33.057Z,20.02
2023-05-10T19:15:00.791Z,20.02
2023-05-10T19:17:29.325Z,20.02
2023-05-10T19:19:57.328Z,20.02
2023-05-10T19:22:43.590Z,20.01
2023-05-10T19:25:18.366Z,20.00
2023-05-10T19:27:46.664Z,20.00
2023-05-10T19:30:14.306Z,20.00
2023-05-10T19:32:44.162Z,20.00
2023-05-10T19:35:13.199Z,20.00
2023-05-10T19:37:45.805Z,20.00
2023-05-10T19:40:14.881Z,19.99
2023-05-10T19:42:43.799Z,20.00
2023-05-10T19:45:11.979Z,19.99
2023-05-10T19:47:39.850Z,20.00
2023-05-10T19:50:08.123Z,19.99
2023-05-10T19:52:35.748Z,19.99
2023-05-10T19:55:04.531Z,19.98
2023-05-10T19:57:32.204Z,20.03
2023-05-10T20:00:01.245Z,20.03
2023-05-10T20:02:28.861Z,20.01
2023-05-10T20:04:56.456Z,20.00
2023-05-10T20:07:25.557Z,20.01
2023-05-10T20:09:53.809Z,20.00
2023-05-10T20:12:21.818Z,19.99
2023-05-10T20:14:50.596Z,19.97
2023-05-10T20:17:19.509Z,19.95
2023-05-10T20:19:47.032Z,19.95
2023-05-10T20:22:14.644Z,19.95
2023-05-10T20:24:42.221Z,19.95
2023-05-10T20:27:09.791Z,19.94
2023-05-10T20:29:37.306Z,19.93
2023-05-10T20:32:05.045Z,19.91
2023-05-10T20:34:35.046Z,19.91
2023-05-10T20:37:02.975Z,19.89
2023-05-10T20:39:30.584Z,19.88
2023-05-10T20:41:58.110Z,19.88
2023-05-10T20:44:26.463Z,19.85
2023-05-10T20:46:54.080Z,19.84
2023-05-10T20:49:21.846Z,19.84
2023-05-10T20:51:50.963Z,19.84
2023-05-10T20:54:18.565Z,19.81
2023-05-10T20:56:46.129Z,19.80
2023-05-10T20:59:13.730Z,19.82
2023-05-10T21:01:41.357Z,19.81
2023-05-10T21:04:08.953Z,19.83
2023-05-10T21:06:36.567Z,19.80
2023-05-10T21:09:05.572Z,19.80
2023-05-10T21:11:35.950Z,19.81
2023-05-10T21:14:03.832Z,19.80
2023-05-10T21:16:31.901Z,19.79
2023-05-10T21:18:59.540Z,19.77
2023-05-10T21:21:27.154Z,19.78
2023-05-10T21:23:54.769Z,19.82
2023-05-10T21:26:23.714Z,19.85
2023-05-10T21:28:51.493Z,19.85
2023-05-10T21:31:19.186Z,19.85
2023-05-10T21:33:46.786Z,19.87
2023-05-10T21:36:14.466Z,19.90
2023-05-10T21:38:44.237Z,19.90
2023-05-10T21:41:11.814Z,19.88
2023-05-10T21:43:40.722Z,19.88
2023-05-10T21:46:09.170Z,19.88
2023-05-10T21:48:36.807Z,19.87
2023-05-10T21:51:04.572Z,19.86
2023-05-10T21:53:32.389Z,19.85
2023-05-10T21:55:59.993Z,19.85
2023-05-10T21:58:27.639Z,19.85
2023-05-10T22:00:56.692Z,19.86
2023-05-10T22:03:24.432Z,19.85
2023-05-10T22:05:52.100Z,19.84
2023-05-10T22:08:19.660Z,19.85
2023-05-10T22:10:47.221Z,19.85
2023-05-10T22:13:14.774Z,19.88
2023-05-10T22:15:43.258Z,19.89
2023-05-10T22:18:12.252Z,19.88
2023-05-10T22:20:39.832Z,19.94
2023-05-10T22:23:07.488Z,19.94
2023-05-10T22:25:35.065Z,19.92
2023-05-10T22:28:03.021Z,19.91
2023-05-10T22:30:32.727Z,19.90
2023-05-10T22:33:00.664Z,19.90
2023-05-10T22:35:29.650Z,19.91
2023-05-10T22:37:57.160Z,19.90
2023-05-10T22:40:24.755Z,19.90
2023-05-10T22:42:52.326Z,19.90
2023-05-10T22:45:19.936Z,19.90
2023-05-10T22:47:47.904Z,19.91
2023-05-10T22:50:15.701Z,19.91
2023-05-10T22:52:44.710Z,19.91
2023-05-10T22:55:12.292Z,19.90
2023-05-10T22:57:39.883Z,19.90
2023-05-10T23:18:09.668Z,19.90
2023-05-10T23:20:37.353Z,19.91
2023-05-10T23:23:05.042Z,19.91
2023-05-10T23:25:32.645Z,19.91
2023-05-10T23:28:00.286Z,19.93
